sensor_id;sensor_type;location;lat;lon;timestamp;P1;durP1;ratioP1;P2;durP2;ratioP2
79759;SDS011;69248;42.138;24.742;2023-05-29T00:01:02;6.12;;;5.53;;
79759;SDS011;69248;42.138;24.742;2023-05-29T00:03:29;9.45;;;5.20;;
79759;SDS011;69248;42.138;24.742;2023-05-29T00:06:01;6.90;;;4.70;;
79759;SDS011;69248;42.138;24.742;2023-05-29T00:08:29;11.30;;;5.72;;
79759;SDS011;69248;42.138;24.742;2023-05-29T00:10:56;7.22;;;5.03;;
79759;SDS011;69248;42.138;24.742;2023-05-29T00:13:24;5.72;;;4.20;;
79759;SDS011;69248;42.138;24.742;2023-05-29T00:15:51;7.92;;;5.15;;
79759;SDS011;69248;42.138;24.742;2023-05-29T00:18:19;8.68;;;4.97;;
79759;SDS011;69248;42.138;24.742;2023-05-29T00:20:47;10.88;;;5.30;;
79759;SDS011;69248;42.138;24.742;2023-05-29T00:23:14;6.47;;;5.50;;
79759;SDS011;69248;42.138;24.742;2023-05-29T00:25:42;6.92;;;5.67;;
79759;SDS011;69248;42.138;24.742;2023-05-29T00:28:09;11.73;;;6.40;;
79759;SDS011;69248;42.138;24.742;2023-05-29T00:30:38;12.10;;;6.90;;
79759;SDS011;69248;42.138;24.742;2023-05-29T00:33:06;9.00;;;6.15;;
79759;SDS011;69248;42.138;24.742;2023-05-29T00:35:34;15.40;;;6.45;;
79759;SDS011;69248;42.138;24.742;2023-05-29T00:38:01;8.75;;;6.28;;
79759;SDS011;69248;42.138;24.742;2023-05-29T00:40:29;14.93;;;7.22;;
79759;SDS011;69248;42.138;24.742;2023-05-29T00:42:56;11.10;;;6.40;;
79759;SDS011;69248;42.138;24.742;2023-05-29T00:45:27;9.83;;;6.08;;
79759;SDS011;69248;42.138;24.742;2023-05-29T00:47:53;8.95;;;6.40;;
79759;SDS011;69248;42.138;24.742;2023-05-29T00:50:21;14.53;;;5.75;;
79759;SDS011;69248;42.138;24.742;2023-05-29T00:52:49;9.65;;;6.15;;
79759;SDS011;69248;42.138;24.742;2023-05-29T00:55:17;9.08;;;5.25;;
79759;SDS011;69248;42.138;24.742;2023-05-29T00:57:45;12.47;;;6.92;;
79759;SDS011;69248;42.138;24.742;2023-05-29T01:00:15;8.10;;;6.20;;
79759;SDS011;69248;42.138;24.742;2023-05-29T01:02:44;16.27;;;5.60;;
79759;SDS011;69248;42.138;24.742;2023-05-29T01:05:13;11.97;;;5.83;;
79759;SDS011;69248;42.138;24.742;2023-05-29T01:07:41;9.33;;;5.75;;
79759;SDS011;69248;42.138;24.742;2023-05-29T01:10:09;7.42;;;4.92;;
79759;SDS011;69248;42.138;24.742;2023-05-29T01:28:47;8.23;;;5.15;;
79759;SDS011;69248;42.138;24.742;2023-05-29T01:31:17;7.72;;;4.97;;
79759;SDS011;69248;42.138;24.742;2023-05-29T01:33:53;10.80;;;5.10;;
79759;SDS011;69248;42.138;24.742;2023-05-29T01:36:26;9.78;;;5.30;;
79759;SDS011;69248;42.138;24.742;2023-05-29T01:38:56;9.10;;;5.17;;
79759;SDS011;69248;42.138;24.742;2023-05-29T01:41:24;8.78;;;5.35;;
79759;SDS011;69248;42.138;24.742;2023-05-29T01:43:53;10.30;;;4.97;;
79759;SDS011;69248;42.138;24.742;2023-05-29T01:46:22;16.77;;;5.22;;
79759;SDS011;69248;42.138;24.742;2023-05-29T01:48:53;7.87;;;5.12;;
79759;SDS011;69248;42.138;24.742;2023-05-29T01:51:23;10.88;;;5.33;;
79759;SDS011;69248;42.138;24.742;2023-05-29T01:53:51;11.78;;;5.97;;
79759;SDS011;69248;42.138;24.742;2023-05-29T01:56:19;10.20;;;5.28;;
79759;SDS011;69248;42.138;24.742;2023-05-29T01:58:48;8.40;;;5.45;;
79759;SDS011;69248;42.138;24.742;2023-05-29T02:01:18;8.33;;;4.72;;
79759;SDS011;69248;42.138;24.742;2023-05-29T02:03:47;16.27;;;5.45;;
79759;SDS011;69248;42.138;24.742;2023-05-29T02:06:16;7.83;;;6.17;;
79759;SDS011;69248;42.138;24.742;2023-05-29T02:08:44;13.18;;;5.65;;
79759;SDS011;69248;42.138;24.742;2023-05-29T02:11:12;10.45;;;6.33;;
79759;SDS011;69248;42.138;24.742;2023-05-29T02:13:41;11.35;;;5.62;;
79759;SDS011;69248;42.138;24.742;2023-05-29T02:16:08;8.08;;;5.10;;
79759;SDS011;69248;42.138;24.742;2023-05-29T02:18:37;7.78;;;4.85;;
79759;SDS011;69248;42.138;24.742;2023-05-29T02:21:06;9.85;;;5.50;;
79759;SDS011;69248;42.138;24.742;2023-05-29T02:23:34;9.43;;;5.37;;
79759;SDS011;69248;42.138;24.742;2023-05-29T02:26:03;7.72;;;5.87;;
79759;SDS011;69248;42.138;24.742;2023-05-29T02:28:31;6.80;;;5.35;;
79759;SDS011;69248;42.138;24.742;2023-05-29T02:30:58;8.10;;;5.58;;
79759;SDS011;69248;42.138;24.742;2023-05-29T02:33:26;12.60;;;5.33;;
79759;SDS011;69248;42.138;24.742;2023-05-29T02:35:55;11.75;;;5.83;;
79759;SDS011;69248;42.138;24.742;2023-05-29T02:38:23;14.10;;;5.97;;
79759;SDS011;69248;42.138;24.742;2023-05-29T02:40:50;13.32;;;5.92;;
79759;SDS011;69248;42.138;24.742;2023-05-29T02:43:18;7.15;;;5.30;;
79759;SDS011;69248;42.138;24.742;2023-05-29T02:45:47;13.40;;;5.67;;
79759;SDS011;69248;42.138;24.742;2023-05-29T02:48:14;14.23;;;5.00;;
79759;SDS011;69248;42.138;24.742;2023-05-29T02:50:42;8.93;;;5.78;;
79759;SDS011;69248;42.138;24.742;2023-05-29T02:53:10;10.95;;;6.10;;
79759;SDS011;69248;42.138;24.742;2023-05-29T02:55:37;7.47;;;5.42;;
79759;SDS011;69248;42.138;24.742;2023-05-29T02:58:05;11.65;;;5.97;;
79759;SDS011;69248;42.138;24.742;2023-05-29T03:00:33;13.75;;;6.12;;
79759;SDS011;69248;42.138;24.742;2023-05-29T03:03:01;22.52;;;6.35;;
79759;SDS011;69248;42.138;24.742;2023-05-29T03:05:29;13.18;;;6.83;;
79759;SDS011;69248;42.138;24.742;2023-05-29T03:07:56;12.70;;;5.75;;
79759;SDS011;69248;42.138;24.742;2023-05-29T03:10:24;19.20;;;10.68;;
79759;SDS011;69248;42.138;24.742;2023-05-29T03:12:51;16.05;;;7.58;;
79759;SDS011;69248;42.138;24.742;2023-05-29T03:15:20;15.10;;;8.88;;
79759;SDS011;69248;42.138;24.742;2023-05-29T03:17:47;10.00;;;6.67;;
79759;SDS011;69248;42.138;24.742;2023-05-29T03:20:15;7.28;;;5.97;;
79759;SDS011;69248;42.138;24.742;2023-05-29T03:22:43;8.78;;;5.55;;
79759;SDS011;69248;42.138;24.742;2023-05-29T03:25:10;13.93;;;6.50;;
79759;SDS011;69248;42.138;24.742;2023-05-29T03:27:38;12.40;;;5.25;;
79759;SDS011;69248;42.138;24.742;2023-05-29T03:30:07;11.40;;;6.37;;
79759;SDS011;69248;42.138;24.742;2023-05-29T03:32:36;12.95;;;6.83;;
79759;SDS011;69248;42.138;24.742;2023-05-29T03:35:06;11.00;;;6.72;;
79759;SDS011;69248;42.138;24.742;2023-05-29T03:37:34;13.40;;;6.55;;
79759;SDS011;69248;42.138;24.742;2023-05-29T03:40:02;10.18;;;6.70;;
79759;SDS011;69248;42.138;24.742;2023-05-29T03:42:31;16.65;;;6.40;;
79759;SDS011;69248;42.138;24.742;2023-05-29T03:44:58;12.47;;;5.85;;
79759;SDS011;69248;42.138;24.742;2023-05-29T03:47:26;11.97;;;5.15;;
79759;SDS011;69248;42.138;24.742;2023-05-29T03:49:53;8.95;;;4.85;;
79759;SDS011;69248;42.138;24.742;2023-05-29T03:52:21;7.80;;;5.33;;
79759;SDS011;69248;42.138;24.742;2023-05-29T03:54:49;12.60;;;5.65;;
79759;SDS011;69248;42.138;24.742;2023-05-29T03:57:16;10.75;;;6.03;;
79759;SDS011;69248;42.138;24.742;2023-05-29T03:59:44;13.70;;;6.92;;
79759;SDS011;69248;42.138;24.742;2023-05-29T04:02:11;12.40;;;5.75;;
79759;SDS011;69248;42.138;24.742;2023-05-29T04:04:39;13.32;;;5.80;;
79759;SDS011;69248;42.138;24.742;2023-05-29T04:07:07;9.03;;;5.92;;
79759;SDS011;69248;42.138;24.742;2023-05-29T04:09:34;8.50;;;6.15;;
79759;SDS011;69248;42.138;24.742;2023-05-29T04:12:02;10.18;;;6.42;;
79759;SDS011;69248;42.138;24.742;2023-05-29T04:14:31;10.78;;;5.83;;
79759;SDS011;69248;42.138;24.742;2023-05-29T04:16:59;12.85;;;6.03;;
79759;SDS011;69248;42.138;24.742;2023-05-29T04:19:26;10.18;;;5.65;;
79759;SDS011;69248;42.138;24.742;2023-05-29T04:21:54;10.93;;;6.42;;
79759;SDS011;69248;42.138;24.742;2023-05-29T04:24:21;9.25;;;5.85;;
79759;SDS011;69248;42.138;24.742;2023-05-29T04:26:50;19.42;;;6.10;;
79759;SDS011;69248;42.138;24.742;2023-05-29T04:29:18;10.15;;;5.70;;
79759;SDS011;69248;42.138;24.742;2023-05-29T04:31:45;10.50;;;5.87;;
79759;SDS011;69248;42.138;24.742;2023-05-29T04:34:13;9.10;;;5.72;;
79759;SDS011;69248;42.138;24.742;2023-05-29T04:36:42;9.53;;;5.85;;
79759;SDS011;69248;42.138;24.742;2023-05-29T04:39:17;11.73;;;5.70;;
79759;SDS011;69248;42.138;24.742;2023-05-29T04:41:46;16.77;;;6.28;;
79759;SDS011;69248;42.138;24.742;2023-05-29T04:44:14;14.18;;;6.25;;
79759;SDS011;69248;42.138;24.742;2023-05-29T04:46:41;13.15;;;5.78;;
79759;SDS011;69248;42.138;24.742;2023-05-29T04:49:12;10.82;;;6.15;;
79759;SDS011;69248;42.138;24.742;2023-05-29T04:51:40;12.43;;;6.60;;
79759;SDS011;69248;42.138;24.742;2023-05-29T04:54:08;12.98;;;6.65;;
79759;SDS011;69248;42.138;24.742;2023-05-29T04:56:37;12.63;;;6.87;;
79759;SDS011;69248;42.138;24.742;2023-05-29T04:59:06;15.15;;;6.90;;
79759;SDS011;69248;42.138;24.742;2023-05-29T05:01:34;7.87;;;5.85;;
79759;SDS011;69248;42.138;24.742;2023-05-29T05:04:02;11.28;;;6.47;;
79759;SDS011;69248;42.138;24.742;2023-05-29T05:06:30;22.42;;;7.62;;
79759;SDS011;69248;42.138;24.742;2023-05-29T05:08:58;12.73;;;6.78;;
79759;SDS011;69248;42.138;24.742;2023-05-29T05:11:26;11.18;;;6.72;;
79759;SDS011;69248;42.138;24.742;2023-05-29T05:13:54;12.37;;;7.17;;
79759;SDS011;69248;42.138;24.742;2023-05-29T05:16:21;9.55;;;6.95;;
79759;SDS011;69248;42.138;24.742;2023-05-29T05:18:49;11.18;;;6.92;;
79759;SDS011;69248;42.138;24.742;2023-05-29T05:21:16;10.43;;;6.37;;
79759;SDS011;69248;42.138;24.742;2023-05-29T05:23:45;8.88;;;5.83;;
79759;SDS011;69248;42.138;24.742;2023-05-29T05:26:12;12.68;;;6.83;;
79759;SDS011;69248;42.138;24.742;2023-05-29T05:28:40;22.15;;;7.87;;
79759;SDS011;69248;42.138;24.742;2023-05-29T05:31:08;13.93;;;6.55;;
79759;SDS011;69248;42.138;24.742;2023-05-29T05:33:37;14.80;;;7.00;;
79759;SDS011;69248;42.138;24.742;2023-05-29T05:36:04;10.03;;;5.80;;
79759;SDS011;69248;42.138;24.742;2023-05-29T05:38:32;8.30;;;6.15;;
79759;SDS011;69248;42.138;24.742;2023-05-29T05:41:00;18.92;;;7.62;;
79759;SDS011;69248;42.138;24.742;2023-05-29T05:43:27;13.62;;;6.33;;
79759;SDS011;69248;42.138;24.742;2023-05-29T05:45:55;12.60;;;6.65;;
79759;SDS011;69248;42.138;24.742;2023-05-29T05:48:23;10.43;;;6.55;;
79759;SDS011;69248;42.138;24.742;2023-05-29T05:50:50;9.45;;;6.72;;
79759;SDS011;69248;42.138;24.742;2023-05-29T05:53:18;12.25;;;6.72;;
79759;SDS011;69248;42.138;24.742;2023-05-29T05:55:47;13.90;;;6.05;;
79759;SDS011;69248;42.138;24.742;2023-05-29T05:58:19;10.82;;;6.70;;
79759;SDS011;69248;42.138;24.742;2023-05-29T06:00:43;16.23;;;6.40;;
79759;SDS011;69248;42.138;24.742;2023-05-29T06:03:11;19.82;;;7.08;;
79759;SDS011;69248;42.138;24.742;2023-05-29T06:05:39;12.70;;;5.65;;
79759;SDS011;69248;42.138;24.742;2023-05-29T06:08:07;9.53;;;7.00;;
79759;SDS011;69248;42.138;24.742;2023-05-29T06:10:35;8.60;;;6.30;;
79759;SDS011;69248;42.138;24.742;2023-05-29T06:13:03;9.25;;;6.33;;
79759;SDS011;69248;42.138;24.742;2023-05-29T06:15:30;10.58;;;6.62;;
79759;SDS011;69248;42.138;24.742;2023-05-29T06:17:58;16.60;;;6.33;;
79759;SDS011;69248;42.138;24.742;2023-05-29T06:20:26;11.93;;;6.92;;
79759;SDS011;69248;42.138;24.742;2023-05-29T06:22:53;16.75;;;7.40;;
79759;SDS011;69248;42.138;24.742;2023-05-29T06:25:21;11.18;;;7.37;;
79759;SDS011;69248;42.138;24.742;2023-05-29T06:27:51;15.95;;;10.45;;
79759;SDS011;69248;42.138;24.742;2023-05-29T06:30:19;10.30;;;6.37;;
79759;SDS011;69248;42.138;24.742;2023-05-29T06:32:47;8.80;;;5.60;;
79759;SDS011;69248;42.138;24.742;2023-05-29T06:35:16;11.88;;;6.40;;
79759;SDS011;69248;42.138;24.742;2023-05-29T06:37:44;13.65;;;7.47;;
79759;SDS011;69248;42.138;24.742;2023-05-29T06:40:13;16.95;;;7.08;;
79759;SDS011;69248;42.138;24.742;2023-05-29T06:42:41;8.98;;;6.28;;
79759;SDS011;69248;42.138;24.742;2023-05-29T06:45:11;15.38;;;5.78;;
79759;SDS011;69248;42.138;24.742;2023-05-29T06:47:41;8.87;;;5.73;;
79759;SDS011;69248;42.138;24.742;2023-05-29T06:50:10;9.15;;;5.80;;
79759;SDS011;69248;42.138;24.742;2023-05-29T06:52:37;8.68;;;5.75;;
79759;SDS011;69248;42.138;24.742;2023-05-29T06:55:06;12.63;;;5.72;;
79759;SDS011;69248;42.138;24.742;2023-05-29T06:57:34;17.02;;;6.80;;
79759;SDS011;69248;42.138;24.742;2023-05-29T07:00:02;10.60;;;6.15;;
79759;SDS011;69248;42.138;24.742;2023-05-29T07:02:32;10.80;;;6.37;;
79759;SDS011;69248;42.138;24.742;2023-05-29T07:04:59;10.45;;;6.22;;
79759;SDS011;69248;42.138;24.742;2023-05-29T07:07:27;8.18;;;5.80;;
79759;SDS011;69248;42.138;24.742;2023-05-29T07:09:55;14.05;;;5.62;;
79759;SDS011;69248;42.138;24.742;2023-05-29T07:12:22;9.88;;;5.90;;
79759;SDS011;69248;42.138;24.742;2023-05-29T07:14:50;6.08;;;4.97;;
79759;SDS011;69248;42.138;24.742;2023-05-29T07:17:17;12.50;;;6.20;;
79759;SDS011;69248;42.138;24.742;2023-05-29T07:19:45;10.38;;;5.58;;
79759;SDS011;69248;42.138;24.742;2023-05-29T07:22:15;7.42;;;4.80;;
79759;SDS011;69248;42.138;24.742;2023-05-29T07:24:43;7.40;;;5.05;;
79759;SDS011;69248;42.138;24.742;2023-05-29T07:27:10;8.48;;;5.12;;
79759;SDS011;69248;42.138;24.742;2023-05-29T07:29:38;11.80;;;5.62;;
79759;SDS011;69248;42.138;24.742;2023-05-29T07:32:05;11.15;;;5.42;;
79759;SDS011;69248;42.138;24.742;2023-05-29T07:34:33;12.45;;;6.40;;
79759;SDS011;69248;42.138;24.742;2023-05-29T07:37:01;12.35;;;5.30;;
79759;SDS011;69248;42.138;24.742;2023-05-29T07:39:31;12.73;;;5.35;;
79759;SDS011;69248;42.138;24.742;2023-05-29T07:42:01;10.93;;;5.65;;
79759;SDS011;69248;42.138;24.742;2023-05-29T07:44:29;11.15;;;5.08;;
79759;SDS011;69248;42.138;24.742;2023-05-29T07:46:57;8.18;;;5.10;;
79759;SDS011;69248;42.138;24.742;2023-05-29T07:49:24;10.55;;;5.15;;
79759;SDS011;69248;42.138;24.742;2023-05-29T07:51:53;11.83;;;5.50;;
79759;SDS011;69248;42.138;24.742;2023-05-29T07:54:21;8.43;;;5.03;;
79759;SDS011;69248;42.138;24.742;2023-05-29T07:56:48;9.60;;;4.78;;
79759;SDS011;69248;42.138;24.742;2023-05-29T07:59:16;6.53;;;4.70;;
79759;SDS011;69248;42.138;24.742;2023-05-29T08:01:44;10.48;;;5.55;;
79759;SDS011;69248;42.138;24.742;2023-05-29T08:04:11;9.85;;;4.70;;
79759;SDS011;69248;42.138;24.742;2023-05-29T08:06:39;10.35;;;5.20;;
79759;SDS011;69248;42.138;24.742;2023-05-29T08:09:08;7.50;;;4.62;;
79759;SDS011;69248;42.138;24.742;2023-05-29T08:11:36;9.53;;;4.70;;
79759;SDS011;69248;42.138;24.742;2023-05-29T08:14:04;8.25;;;4.33;;
79759;SDS011;69248;42.138;24.742;2023-05-29T08:16:31;11.80;;;5.12;;
79759;SDS011;69248;42.138;24.742;2023-05-29T08:18:59;9.00;;;4.92;;
79759;SDS011;69248;42.138;24.742;2023-05-29T08:21:27;7.97;;;4.92;;
79759;SDS011;69248;42.138;24.742;2023-05-29T08:23:54;9.93;;;4.87;;
79759;SDS011;69248;42.138;24.742;2023-05-29T08:26:22;13.60;;;5.37;;
79759;SDS011;69248;42.138;24.742;2023-05-29T08:28:49;9.18;;;4.33;;
79759;SDS011;69248;42.138;24.742;2023-05-29T08:31:17;5.33;;;4.08;;
79759;SDS011;69248;42.138;24.742;2023-05-29T08:33:45;28.67;;;5.85;;
79759;SDS011;69248;42.138;24.742;2023-05-29T08:36:12;6.47;;;3.65;;
79759;SDS011;69248;42.138;24.742;2023-05-29T08:38:40;9.03;;;4.70;;
79759;SDS011;69248;42.138;24.742;2023-05-29T08:41:08;8.23;;;4.20;;
79759;SDS011;69248;42.138;24.742;2023-05-29T08:43:37;9.38;;;3.95;;
79759;SDS011;69248;42.138;24.742;2023-05-29T08:46:06;4.58;;;3.92;;
79759;SDS011;69248;42.138;24.742;2023-05-29T08:48:38;10.03;;;4.28;;
79759;SDS011;69248;42.138;24.742;2023-05-29T08:51:07;8.63;;;4.53;;
79759;SDS011;69248;42.138;24.742;2023-05-29T08:53:36;7.08;;;4.15;;
79759;SDS011;69248;42.138;24.742;2023-05-29T08:56:04;9.35;;;4.95;;
79759;SDS011;69248;42.138;24.742;2023-05-29T08:58:32;7.65;;;4.28;;
79759;SDS011;69248;42.138;24.742;2023-05-29T09:01:00;11.15;;;4.80;;
79759;SDS011;69248;42.138;24.742;2023-05-29T09:03:29;6.92;;;3.72;;
79759;SDS011;69248;42.138;24.742;2023-05-29T09:06:00;11.00;;;4.20;;
79759;SDS011;69248;42.138;24.742;2023-05-29T09:08:29;8.40;;;4.20;;
79759;SDS011;69248;42.138;24.742;2023-05-29T09:10:58;11.93;;;4.75;;
79759;SDS011;69248;42.138;24.742;2023-05-29T09:13:27;6.47;;;5.00;;
79759;SDS011;69248;42.138;24.742;2023-05-29T09:15:58;10.15;;;4.70;;
79759;SDS011;69248;42.138;24.742;2023-05-29T09:18:28;27.80;;;4.87;;
79759;SDS011;69248;42.138;24.742;2023-05-29T09:20:58;5.65;;;4.35;;
79759;SDS011;69248;42.138;24.742;2023-05-29T09:23:25;8.28;;;4.05;;
79759;SDS011;69248;42.138;24.742;2023-05-29T09:25:53;9.93;;;4.17;;
79759;SDS011;69248;42.138;24.742;2023-05-29T09:28:21;10.18;;;4.42;;
79759;SDS011;69248;42.138;24.742;2023-05-29T09:30:49;10.23;;;4.55;;
79759;SDS011;69248;42.138;24.742;2023-05-29T09:33:17;9.43;;;4.50;;
79759;SDS011;69248;42.138;24.742;2023-05-29T09:35:45;7.00;;;4.12;;
79759;SDS011;69248;42.138;24.742;2023-05-29T09:38:16;7.05;;;4.12;;
79759;SDS011;69248;42.138;24.742;2023-05-29T09:40:44;5.40;;;3.85;;
79759;SDS011;69248;42.138;24.742;2023-05-29T09:43:12;7.50;;;4.55;;
79759;SDS011;69248;42.138;24.742;2023-05-29T09:45:44;5.37;;;3.70;;
79759;SDS011;69248;42.138;24.742;2023-05-29T09:48:14;10.20;;;3.77;;
79759;SDS011;69248;42.138;24.742;2023-05-29T09:50:43;7.62;;;3.95;;
79759;SDS011;69248;42.138;24.742;2023-05-29T09:53:16;9.78;;;4.20;;
79759;SDS011;69248;42.138;24.742;2023-05-29T09:55:49;6.47;;;4.65;;
79759;SDS011;69248;42.138;24.742;2023-05-29T09:58:18;6.42;;;3.92;;
79759;SDS011;69248;42.138;24.742;2023-05-29T10:00:47;7.65;;;3.62;;
79759;SDS011;69248;42.138;24.742;2023-05-29T10:03:17;6.15;;;3.80;;
79759;SDS011;69248;42.138;24.742;2023-05-29T10:05:50;6.37;;;4.08;;
79759;SDS011;69248;42.138;24.742;2023-05-29T10:08:20;5.85;;;4.45;;
79759;SDS011;69248;42.138;24.742;2023-05-29T10:10:59;8.65;;;4.28;;
79759;SDS011;69248;42.138;24.742;2023-05-29T10:13:31;10.08;;;4.12;;
79759;SDS011;69248;42.138;24.742;2023-05-29T10:15:59;7.70;;;4.42;;
79759;SDS011;69248;42.138;24.742;2023-05-29T10:18:36;6.17;;;4.00;;
79759;SDS011;69248;42.138;24.742;2023-05-29T10:21:08;6.00;;;3.25;;
79759;SDS011;69248;42.138;24.742;2023-05-29T10:23:38;11.50;;;4.08;;
79759;SDS011;69248;42.138;24.742;2023-05-29T10:26:12;9.18;;;4.10;;
79759;SDS011;69248;42.138;24.742;2023-05-29T10:31:28;9.05;;;4.10;;
79759;SDS011;69248;42.138;24.742;2023-05-29T10:34:29;8.80;;;3.92;;
79759;SDS011;69248;42.138;24.742;2023-05-29T10:37:04;5.28;;;3.62;;
79759;SDS011;69248;42.138;24.742;2023-05-29T10:39:32;6.25;;;4.03;;
79759;SDS011;69248;42.138;24.742;2023-05-29T10:42:00;6.62;;;3.40;;
79759;SDS011;69248;42.138;24.742;2023-05-29T10:44:37;4.28;;;3.70;;
79759;SDS011;69248;42.138;24.742;2023-05-29T10:47:01;5.95;;;4.15;;
79759;SDS011;69248;42.138;24.742;2023-05-29T10:49:31;10.55;;;3.72;;
79759;SDS011;69248;42.138;24.742;2023-05-29T10:52:00;4.12;;;3.72;;
79759;SDS011;69248;42.138;24.742;2023-05-29T10:54:39;5.17;;;3.35;;
79759;SDS011;69248;42.138;24.742;2023-05-29T10:57:01;6.03;;;4.10;;
79759;SDS011;69248;42.138;24.742;2023-05-29T10:59:29;7.58;;;4.03;;
79759;SDS011;69248;42.138;24.742;2023-05-29T11:01:59;6.30;;;3.55;;
79759;SDS011;69248;42.138;24.742;2023-05-29T11:04:27;3.72;;;2.92;;
79759;SDS011;69248;42.138;24.742;2023-05-29T11:06:57;6.22;;;3.37;;
79759;SDS011;69248;42.138;24.742;2023-05-29T11:09:25;6.00;;;3.77;;
79759;SDS011;69248;42.138;24.742;2023-05-29T11:14:46;6.72;;;4.03;;
79759;SDS011;69248;42.138;24.742;2023-05-29T11:20:06;6.67;;;3.53;;
79759;SDS011;69248;42.138;24.742;2023-05-29T11:25:30;5.97;;;3.77;;
79759;SDS011;69248;42.138;24.742;2023-05-29T11:28:00;5.12;;;3.62;;
79759;SDS011;69248;42.138;24.742;2023-05-29T11:30:30;9.25;;;4.87;;
79759;SDS011;69248;42.138;24.742;2023-05-29T11:32:59;5.42;;;3.47;;
79759;SDS011;69248;42.138;24.742;2023-05-29T11:35:31;6.42;;;3.15;;
79759;SDS011;69248;42.138;24.742;2023-05-29T11:38:01;5.90;;;3.98;;
79759;SDS011;69248;42.138;24.742;2023-05-29T11:40:35;4.30;;;3.10;;
79759;SDS011;69248;42.138;24.742;2023-05-29T11:43:03;5.90;;;3.20;;
79759;SDS011;69248;42.138;24.742;2023-05-29T11:45:32;6.47;;;2.95;;
79759;SDS011;69248;42.138;24.742;2023-05-29T11:48:00;5.17;;;3.30;;
79759;SDS011;69248;42.138;24.742;2023-05-29T11:50:30;11.00;;;3.42;;
79759;SDS011;69248;42.138;24.742;2023-05-29T11:52:59;10.75;;;3.70;;
79759;SDS011;69248;42.138;24.742;2023-05-29T11:55:27;5.35;;;3.22;;
79759;SDS011;69248;42.138;24.742;2023-05-29T11:57:59;9.10;;;3.90;;
79759;SDS011;69248;42.138;24.742;2023-05-29T12:00:36;7.83;;;4.10;;
79759;SDS011;69248;42.138;24.742;2023-05-29T12:03:01;4.75;;;2.95;;
79759;SDS011;69248;42.138;24.742;2023-05-29T12:05:30;7.12;;;3.42;;
79759;SDS011;69248;42.138;24.742;2023-05-29T12:07:59;6.17;;;3.05;;
79759;SDS011;69248;42.138;24.742;2023-05-29T12:10:30;7.00;;;3.87;;
79759;SDS011;69248;42.138;24.742;2023-05-29T12:12:58;5.97;;;3.27;;
79759;SDS011;69248;42.138;24.742;2023-05-29T12:15:29;4.33;;;2.90;;
79759;SDS011;69248;42.138;24.742;2023-05-29T12:17:57;4.97;;;3.33;;
79759;SDS011;69248;42.138;24.742;2023-05-29T12:20:26;5.95;;;3.08;;
79759;SDS011;69248;42.138;24.742;2023-05-29T12:22:58;4.28;;;2.58;;
79759;SDS011;69248;42.138;24.742;2023-05-29T12:25:25;6.12;;;2.80;;
79759;SDS011;69248;42.138;24.742;2023-05-29T12:27:57;7.60;;;2.75;;
79759;SDS011;69248;42.138;24.742;2023-05-29T12:32:52;3.12;;;2.70;;
79759;SDS011;69248;42.138;24.742;2023-05-29T12:35:21;7.65;;;3.42;;
79759;SDS011;69248;42.138;24.742;2023-05-29T12:37:54;7.05;;;2.47;;
79759;SDS011;69248;42.138;24.742;2023-05-29T12:40:27;5.95;;;2.60;;
79759;SDS011;69248;42.138;24.742;2023-05-29T12:42:57;5.85;;;3.08;;
79759;SDS011;69248;42.138;24.742;2023-05-29T12:45:29;3.37;;;2.67;;
79759;SDS011;69248;42.138;24.742;2023-05-29T12:48:01;4.70;;;2.85;;
79759;SDS011;69248;42.138;24.742;2023-05-29T12:50:31;10.58;;;3.22;;
79759;SDS011;69248;42.138;24.742;2023-05-29T12:53:06;7.00;;;3.30;;
79759;SDS011;69248;42.138;24.742;2023-05-29T12:55:36;3.27;;;2.58;;
79759;SDS011;69248;42.138;24.742;2023-05-29T12:58:06;5.78;;;2.77;;
79759;SDS011;69248;42.138;24.742;2023-05-29T13:00:37;5.05;;;2.70;;
79759;SDS011;69248;42.138;24.742;2023-05-29T13:03:06;5.33;;;2.87;;
79759;SDS011;69248;42.138;24.742;2023-05-29T13:05:36;9.33;;;3.35;;
79759;SDS011;69248;42.138;24.742;2023-05-29T13:08:04;6.70;;;3.77;;
79759;SDS011;69248;42.138;24.742;2023-05-29T13:10:33;6.05;;;3.20;;
79759;SDS011;69248;42.138;24.742;2023-05-29T13:13:01;7.58;;;3.77;;
79759;SDS011;69248;42.138;24.742;2023-05-29T13:15:29;7.35;;;3.60;;
79759;SDS011;69248;42.138;24.742;2023-05-29T13:17:58;15.20;;;4.25;;
79759;SDS011;69248;42.138;24.742;2023-05-29T13:20:26;13.83;;;4.70;;
79759;SDS011;69248;42.138;24.742;2023-05-29T13:22:54;6.50;;;2.87;;
79759;SDS011;69248;42.138;24.742;2023-05-29T13:25:21;6.65;;;3.20;;
79759;SDS011;69248;42.138;24.742;2023-05-29T13:27:51;4.45;;;3.20;;
79759;SDS011;69248;42.138;24.742;2023-05-29T13:30:23;8.38;;;3.95;;
79759;SDS011;69248;42.138;24.742;2023-05-29T13:32:48;4.95;;;3.17;;
79759;SDS011;69248;42.138;24.742;2023-05-29T13:35:20;3.62;;;2.85;;
79759;SDS011;69248;42.138;24.742;2023-05-29T13:37:47;8.08;;;2.85;;
79759;SDS011;69248;42.138;24.742;2023-05-29T13:40:15;12.03;;;4.40;;
79759;SDS011;69248;42.138;24.742;2023-05-29T13:42:43;8.53;;;3.75;;
79759;SDS011;69248;42.138;24.742;2023-05-29T13:45:10;5.72;;;3.33;;
79759;SDS011;69248;42.138;24.742;2023-05-29T13:47:39;8.93;;;3.85;;
79759;SDS011;69248;42.138;24.742;2023-05-29T13:50:07;7.85;;;3.22;;
79759;SDS011;69248;42.138;24.742;2023-05-29T13:52:36;7.70;;;4.55;;
79759;SDS011;69248;42.138;24.742;2023-05-29T13:55:04;7.25;;;3.05;;
79759;SDS011;69248;42.138;24.742;2023-05-29T13:57:34;8.17;;;3.00;;
79759;SDS011;69248;42.138;24.742;2023-05-29T14:00:03;4.80;;;2.52;;
79759;SDS011;69248;42.138;24.742;2023-05-29T14:02:31;4.83;;;2.27;;
79759;SDS011;69248;42.138;24.742;2023-05-29T14:04:59;4.12;;;2.40;;
79759;SDS011;69248;42.138;24.742;2023-05-29T14:07:26;4.55;;;3.10;;
79759;SDS011;69248;42.138;24.742;2023-05-29T14:09:54;9.20;;;5.28;;
79759;SDS011;69248;42.138;24.742;2023-05-29T14:12:22;8.55;;;3.08;;
79759;SDS011;69248;42.138;24.742;2023-05-29T14:14:49;12.90;;;5.80;;
79759;SDS011;69248;42.138;24.742;2023-05-29T14:17:17;16.02;;;9.03;;
79759;SDS011;69248;42.138;24.742;2023-05-29T14:19:45;10.03;;;4.12;;
79759;SDS011;69248;42.138;24.742;2023-05-29T14:22:13;10.30;;;4.58;;
79759;SDS011;69248;42.138;24.742;2023-05-29T14:24:41;11.00;;;4.75;;
79759;SDS011;69248;42.138;24.742;2023-05-29T14:27:08;7.60;;;4.45;;
79759;SDS011;69248;42.138;24.742;2023-05-29T14:29:36;13.93;;;5.75;;
79759;SDS011;69248;42.138;24.742;2023-05-29T14:32:03;8.63;;;4.75;;
79759;SDS011;69248;42.138;24.742;2023-05-29T14:34:32;8.95;;;4.55;;
79759;SDS011;69248;42.138;24.742;2023-05-29T14:37:02;14.55;;;5.70;;
79759;SDS011;69248;42.138;24.742;2023-05-29T14:39:34;8.55;;;4.50;;
79759;SDS011;69248;42.138;24.742;2023-05-29T14:42:02;7.80;;;4.72;;
79759;SDS011;69248;42.138;24.742;2023-05-29T14:44:31;17.17;;;9.45;;
79759;SDS011;69248;42.138;24.742;2023-05-29T14:46:59;11.60;;;5.30;;
79759;SDS011;69248;42.138;24.742;2023-05-29T14:49:28;11.57;;;5.65;;
79759;SDS011;69248;42.138;24.742;2023-05-29T14:51:57;8.70;;;5.17;;
79759;SDS011;69248;42.138;24.742;2023-05-29T14:54:24;9.25;;;5.65;;
79759;SDS011;69248;42.138;24.742;2023-05-29T14:56:53;8.53;;;4.37;;
79759;SDS011;69248;42.138;24.742;2023-05-29T14:59:21;9.90;;;4.20;;
79759;SDS011;69248;42.138;24.742;2023-05-29T15:01:49;7.03;;;5.03;;
79759;SDS011;69248;42.138;24.742;2023-05-29T15:04:16;6.75;;;3.92;;
79759;SDS011;69248;42.138;24.742;2023-05-29T15:06:44;10.82;;;5.42;;